sensor_id;sensor_type;location;lat;lon;timestamp;pressure;altitude;pressure_sealevel;temperature;humidity
53619;BME280;68717;53.040;18.488;2023-04-28T00:00:00;101744.19;;;2.17;100.00
53619;BME280;68717;53.040;18.488;2023-04-28T00:00:14;101745.00;;;2.19;100.00
53619;BME280;68717;53.040;18.488;2023-04-28T00:00:47;101745.03;;;2.17;100.00
53619;BME280;68717;53.040;18.488;2023-04-28T00:01:04;101742.38;;;2.17;100.00
53619;BME280;68717;53.040;18.488;2023-04-28T00:01:18;101741.47;;;2.18;100.00
53619;BME280;68717;53.040;18.488;2023-04-28T00:01:30;101748.50;;;2.19;100.00
53619;BME280;68717;53.040;18.488;2023-04-28T00:01:43;101748.50;;;2.19;100.00
53619;BME280;68717;53.040;18.488;2023-04-28T00:01:57;101744.94;;;2.20;100.00
53619;BME280;68717;53.040;18.488;2023-04-28T00:02:10;101748.50;;;2.19;100.00
53619;BME280;68717;53.040;18.488;2023-04-28T00:02:22;101742.31;;;2.20;100.00
53619;BME280;68717;53.040;18.488;2023-04-28T00:02:36;101747.63;;;2.19;100.00
53619;BME280;68717;53.040;18.488;2023-04-28T00:02:48;101739.75;;;2.17;100.00
53619;BME280;68717;53.040;18.488;2023-04-28T00:03:03;101738.88;;;2.17;100.00
53619;BME280;68717;53.040;18.488;2023-04-28T00:03:16;101745.03;;;2.17;100.00
53619;BME280;68717;53.040;18.488;2023-04-28T00:03:30;101736.25;;;2.17;100.00
53619;BME280;68717;53.040;18.488;2023-04-28T00:03:44;101747.75;;;2.16;100.00
53619;BME280;68717;53.040;18.488;2023-04-28T00:03:57;101740.72;;;2.15;100.00
53619;BME280;68717;53.040;18.488;2023-04-28T00:04:10;101744.22;;;2.15;100.00
53619;BME280;68717;53.040;18.488;2023-04-28T00:04:24;101746.88;;;2.15;100.00
53619;BME280;68717;53.040;18.488;2023-04-28T00:04:37;101745.16;;;2.14;100.00
53619;BME280;68717;53.040;18.488;2023-04-28T00:04:51;101737.22;;;2.14;100.00
53619;BME280;68717;53.040;18.488;2023-04-28T00:05:04;101744.31;;;2.14;100.00
53619;BME280;68717;53.040;18.488;2023-04-28T00:05:17;101744.22;;;2.15;100.00
53619;BME280;68717;53.040;18.488;2023-04-28T00:05:31;101739.88;;;2.14;100.00
53619;BME280;68717;53.040;18.488;2023-04-28T00:05:44;101739.88;;;2.14;100.00
53619;BME280;68717;53.040;18.488;2023-04-28T00:05:58;101738.06;;;2.15;100.00
53619;BME280;68717;53.040;18.488;2023-04-28T00:06:11;101746.88;;;2.15;100.00
53619;BME280;68717;53.040;18.488;2023-04-28T00:06:23;101737.22;;;2.14;100.00
53619;BME280;68717;53.040;18.488;2023-04-28T00:06:36;101742.50;;;2.14;100.00
53619;BME280;68717;53.040;18.488;2023-04-28T00:06:49;101748.66;;;2.15;100.00
53619;BME280;68717;53.040;18.488;2023-04-28T00:07:02;101739.00;;;2.14;100.00
53619;BME280;68717;53.040;18.488;2023-04-28T00:07:15;101739.06;;;2.12;100.00
53619;BME280;68717;53.040;18.488;2023-04-28T00:07:28;101741.69;;;2.12;100.00
53619;BME280;68717;53.040;18.488;2023-04-28T00:07:41;101745.16;;;2.14;100.00
53619;BME280;68717;53.040;18.488;2023-04-28T00:07:54;101742.56;;;2.13;100.00
53619;BME280;68717;53.040;18.488;2023-04-28T00:08:07;101743.44;;;2.13;100.00
53619;BME280;68717;53.040;18.488;2023-04-28T00:08:20;101744.34;;;2.12;100.00
53619;BME280;68717;53.040;18.488;2023-04-28T00:08:37;101740.78;;;2.13;100.00
53619;BME280;68717;53.040;18.488;2023-04-28T00:08:50;101744.34;;;2.12;100.00
53619;BME280;68717;53.040;18.488;2023-04-28T00:09:03;101740.84;;;2.12;100.00
53619;BME280;68717;53.040;18.488;2023-04-28T00:09:16;101742.63;;;2.11;100.00
53619;BME280;68717;53.040;18.488;2023-04-28T00:09:28;101743.53;;;2.10;100.00
53619;BME280;68717;53.040;18.488;2023-04-28T00:09:41;101744.47;;;2.09;100.00
53619;BME280;68717;53.040;18.488;2023-04-28T00:09:54;101740.94;;;2.09;100.00
53619;BME280;68717;53.040;18.488;2023-04-28T00:10:08;101745.38;;;2.08;100.00
53619;BME280;68717;53.040;18.488;2023-04-28T00:10:21;101743.66;;;2.07;100.00
53619;BME280;68717;53.040;18.488;2023-04-28T00:10:34;101744.50;;;2.08;100.00
53619;BME280;68717;53.040;18.488;2023-04-28T00:10:47;101743.66;;;2.07;100.00
53619;BME280;68717;53.040;18.488;2023-04-28T00:11:00;101743.66;;;2.07;100.00
53619;BME280;68717;53.040;18.488;2023-04-28T00:11:13;101740.13;;;2.07;100.00
53619;BME280;68717;53.040;18.488;2023-04-28T00:11:26;101748.06;;;2.07;100.00
53619;BME280;68717;53.040;18.488;2023-04-28T00:11:39;101744.56;;;2.06;100.00
53619;BME280;68717;53.040;18.488;2023-04-28T00:11:52;101745.41;;;2.07;100.00
53619;BME280;68717;53.040;18.488;2023-04-28T00:12:05;101741.91;;;2.06;100.00
53619;BME280;68717;53.040;18.488;2023-04-28T00:12:18;101748.06;;;2.07;100.00
53619;BME280;68717;53.040;18.488;2023-04-28T00:12:31;101744.56;;;2.06;100.00
53619;BME280;68717;53.040;18.488;2023-04-28T00:12:44;101744.56;;;2.06;100.00
53619;BME280;68717;53.040;18.488;2023-04-28T00:12:57;101744.56;;;2.06;100.00
53619;BME280;68717;53.040;18.488;2023-04-28T00:13:10;101740.13;;;2.07;100.00
53619;BME280;68717;53.040;18.488;2023-04-28T00:13:23;101744.50;;;2.08;100.00
53619;BME280;68717;53.040;18.488;2023-04-28T00:13:36;101742.72;;;2.08;100.00
53619;BME280;68717;53.040;18.488;2023-04-28T00:13:49;101744.47;;;2.09;100.00
53619;BME280;68717;53.040;18.488;2023-04-28T00:14:02;101743.56;;;2.09;100.00
53619;BME280;68717;53.040;18.488;2023-04-28T00:14:14;101748.81;;;2.10;100.00
53619;BME280;68717;53.040;18.488;2023-04-28T00:14:27;101743.53;;;2.10;100.00
53619;BME280;68717;53.040;18.488;2023-04-28T00:14:41;101748.81;;;2.10;100.00
53619;BME280;68717;53.040;18.488;2023-04-28T00:14:54;101748.81;;;2.10;100.00
53619;BME280;68717;53.040;18.488;2023-04-28T00:15:07;101750.63;;;2.10;100.00
53619;BME280;68717;53.040;18.488;2023-04-28T00:15:20;101741.81;;;2.09;100.00
53619;BME280;68717;53.040;18.488;2023-04-28T00:15:33;101741.81;;;2.09;100.00
53619;BME280;68717;53.040;18.488;2023-04-28T00:15:46;101745.31;;;2.10;100.00
53619;BME280;68717;53.040;18.488;2023-04-28T00:16:01;101740.06;;;2.08;100.00
53619;BME280;68717;53.040;18.488;2023-04-28T00:16:14;101743.66;;;2.07;100.00
53619;BME280;68717;53.040;18.488;2023-04-28T00:16:27;101742.75;;;2.07;100.00
53619;BME280;68717;53.040;18.488;2023-04-28T00:16:40;101747.19;;;2.06;100.00
53619;BME280;68717;53.040;18.488;2023-04-28T00:16:53;101743.75;;;2.04;100.00
53619;BME280;68717;53.040;18.488;2023-04-28T00:17:09;101746.47;;;2.02;100.00
53619;BME280;68717;53.040;18.488;2023-04-28T00:17:22;101748.28;;;2.00;100.00
53619;BME280;68717;53.040;18.488;2023-04-28T00:17:35;101743.91;;;1.99;100.00
53619;BME280;68717;53.040;18.488;2023-04-28T00:17:48;101734.31;;;1.97;100.00
53619;BME280;68717;53.040;18.488;2023-04-28T00:18:00;101740.53;;;1.96;100.00
53619;BME280;68717;53.040;18.488;2023-04-28T00:18:16;101750.28;;;1.94;100.00
53619;BME280;68717;53.040;18.488;2023-04-28T00:18:29;101747.66;;;1.94;100.00
53619;BME280;68717;53.040;18.488;2023-04-28T00:18:41;101744.22;;;1.90;100.00
53619;BME280;68717;53.040;18.488;2023-04-28T00:18:54;101742.56;;;1.88;100.00
53619;BME280;68717;53.040;18.488;2023-04-28T00:19:07;101747.00;;;1.87;100.00
53619;BME280;68717;53.040;18.488;2023-04-28T00:19:20;101751.41;;;1.87;100.00
53619;BME280;68717;53.040;18.488;2023-04-28T00:19:33;101741.78;;;1.84;100.00
53619;BME280;68717;53.040;18.488;2023-04-28T00:19:47;101745.38;;;1.83;100.00
53619;BME280;68717;53.040;18.488;2023-04-28T00:20:01;101748.09;;;1.80;100.00
53619;BME280;68717;53.040;18.488;2023-04-28T00:20:15;101753.47;;;1.78;100.00
53619;BME280;68717;53.040;18.488;2023-04-28T00:20:27;101743.78;;;1.77;100.00
53619;BME280;68717;53.040;18.488;2023-04-28T00:20:40;101751.72;;;1.77;100.00
53619;BME280;68717;53.040;18.488;2023-04-28T00:20:54;101746.44;;;1.77;100.00
53619;BME280;68717;53.040;18.488;2023-04-28T00:21:06;101752.56;;;1.78;100.00
53619;BME280;68717;53.040;18.488;2023-04-28T00:21:20;101747.28;;;1.78;100.00
53619;BME280;68717;53.040;18.488;2023-04-28T00:21:34;101748.16;;;1.78;100.00
53619;BME280;68717;53.040;18.488;2023-04-28T00:21:46;101750.81;;;1.78;100.00
53619;BME280;68717;53.040;18.488;2023-04-28T00:21:59;101748.16;;;1.78;100.00
53619;BME280;68717;53.040;18.488;2023-04-28T00:22:12;101750.75;;;1.80;100.00
53619;BME280;68717;53.040;18.488;2023-04-28T00:22:25;101744.59;;;1.79;100.00
53619;BME280;68717;53.040;18.488;2023-04-28T00:22:38;101750.75;;;1.80;100.00
53619;BME280;68717;53.040;18.488;2023-04-28T00:22:50;101748.09;;;1.80;100.00
53619;BME280;68717;53.040;18.488;2023-04-28T00:23:04;101755.13;;;1.81;100.00
53619;BME280;68717;53.040;18.488;2023-04-28T00:23:17;101748.94;;;1.80;100.00
53619;BME280;68717;53.040;18.488;2023-04-28T00:23:30;101748.94;;;1.80;100.00
53619;BME280;68717;53.040;18.488;2023-04-28T00:23:43;101752.47;;;1.81;100.00
53619;BME280;68717;53.040;18.488;2023-04-28T00:23:56;101748.91;;;1.82;100.00
53619;BME280;68717;53.040;18.488;2023-04-28T00:24:08;101753.34;;;1.81;100.00
53619;BME280;68717;53.040;18.488;2023-04-28T00:24:22;101749.75;;;1.82;100.00
53619;BME280;68717;53.040;18.488;2023-04-28T00:24:35;101752.41;;;1.82;100.00
53619;BME280;68717;53.040;18.488;2023-04-28T00:24:48;101744.56;;;1.81;100.00
53619;BME280;68717;53.040;18.488;2023-04-28T00:25:01;101751.59;;;1.80;100.00
53619;BME280;68717;53.040;18.488;2023-04-28T00:25:13;101747.25;;;1.79;100.00
53619;BME280;68717;53.040;18.488;2023-04-28T00:25:27;101748.16;;;1.78;100.00
53619;BME280;68717;53.040;18.488;2023-04-28T00:25:39;101753.47;;;1.78;100.00
53619;BME280;68717;53.040;18.488;2023-04-28T00:25:54;101758.75;;;1.78;100.00
53619;BME280;68717;53.040;18.488;2023-04-28T00:26:08;101749.06;;;1.77;100.00
53619;BME280;68717;53.040;18.488;2023-04-28T00:26:22;101749.06;;;1.77;100.00
53619;BME280;68717;53.040;18.488;2023-04-28T00:26:34;101744.72;;;1.76;100.00
53619;BME280;68717;53.040;18.488;2023-04-28T00:26:48;101750.00;;;1.76;100.00
53619;BME280;68717;53.040;18.488;2023-04-28T00:27:00;101755.28;;;1.76;100.00
53619;BME280;68717;53.040;18.488;2023-04-28T00:27:14;101751.84;;;1.74;100.00
53619;BME280;68717;53.040;18.488;2023-04-28T00:27:28;101751.84;;;1.74;100.00
53619;BME280;68717;53.040;18.488;2023-04-28T00:27:41;101748.25;;;1.75;100.00
53619;BME280;68717;53.040;18.488;2023-04-28T00:27:54;101747.41;;;1.75;100.00
53619;BME280;68717;53.040;18.488;2023-04-28T00:28:07;101743.91;;;1.74;100.00
53619;BME280;68717;53.040;18.488;2023-04-28T00:28:20;101750.09;;;1.73;100.00
53619;BME280;68717;53.040;18.488;2023-04-28T00:28:46;101748.28;;;1.74;100.00
53619;BME280;68717;53.040;18.488;2023-04-28T00:28:58;101756.31;;;1.72;100.00
53619;BME280;68717;53.040;18.488;2023-04-28T00:29:12;101750.19;;;1.70;100.00
53619;BME280;68717;53.040;18.488;2023-04-28T00:29:25;101748.41;;;1.71;100.00
53619;BME280;68717;53.040;18.488;2023-04-28T00:29:39;101752.00;;;1.70;100.00
53619;BME280;68717;53.040;18.488;2023-04-28T00:29:53;101747.59;;;1.69;100.00
53619;BME280;68717;53.040;18.488;2023-04-28T00:30:08;101745.81;;;1.69;100.00
53619;BME280;68717;53.040;18.488;2023-04-28T00:30:21;101744.91;;;1.70;100.00
53619;BME280;68717;53.040;18.488;2023-04-28T00:30:34;101754.56;;;1.71;100.00
53619;BME280;68717;53.040;18.488;2023-04-28T00:30:47;101752.78;;;1.72;100.00
53619;BME280;68717;53.040;18.488;2023-04-28T00:31:01;101758.06;;;1.72;100.00
53619;BME280;68717;53.040;18.488;2023-04-28T00:31:14;101752.78;;;1.72;100.00
53619;BME280;68717;53.040;18.488;2023-04-28T00:31:28;101745.78;;;1.71;100.00
53619;BME280;68717;53.040;18.488;2023-04-28T00:31:40;101756.31;;;1.72;100.00
53619;BME280;68717;53.040;18.488;2023-04-28T00:31:53;101753.66;;;1.72;100.00
53619;BME280;68717;53.040;18.488;2023-04-28T00:32:06;101749.22;;;1.73;100.00
53619;BME280;68717;53.040;18.488;2023-04-28T00:32:20;101756.31;;;1.72;100.00
53619;BME280;68717;53.040;18.488;2023-04-28T00:32:33;101748.38;;;1.72;100.00
53619;BME280;68717;53.040;18.488;2023-04-28T00:32:45;101755.38;;;1.73;100.00
53619;BME280;68717;53.040;18.488;2023-04-28T00:32:58;101754.47;;;1.74;100.00
53619;BME280;68717;53.040;18.488;2023-04-28T00:33:11;101754.47;;;1.74;100.00
53619;BME280;68717;53.040;18.488;2023-04-28T00:33:26;101757.13;;;1.74;100.00
53619;BME280;68717;53.040;18.488;2023-04-28T00:33:39;101753.53;;;1.75;100.00
53619;BME280;68717;53.040;18.488;2023-04-28T00:33:52;101757.03;;;1.76;100.00
53619;BME280;68717;53.040;18.488;2023-04-28T00:34:05;101753.53;;;1.75;100.00
53619;BME280;68717;53.040;18.488;2023-04-28T00:34:18;101753.53;;;1.75;100.00
53619;BME280;68717;53.040;18.488;2023-04-28T00:34:31;101753.53;;;1.75;100.00
53619;BME280;68717;53.040;18.488;2023-04-28T00:34:44;101757.03;;;1.76;100.00
53619;BME280;68717;53.040;18.488;2023-04-28T00:34:57;101755.28;;;1.76;100.00
53619;BME280;68717;53.040;18.488;2023-04-28T00:35:11;101757.00;;;1.77;100.00
53619;BME280;68717;53.040;18.488;2023-04-28T00:35:24;101752.66;;;1.76;100.00
53619;BME280;68717;53.040;18.488;2023-04-28T00:35:37;101754.34;;;1.77;100.00
53619;BME280;68717;53.040;18.488;2023-04-28T00:35:57;101756.09;;;1.78;100.00
53619;BME280;68717;53.040;18.488;2023-04-28T00:36:10;101756.09;;;1.78;100.00
53619;BME280;68717;53.040;18.488;2023-04-28T00:36:23;101753.47;;;1.78;100.00
53619;BME280;68717;53.040;18.488;2023-04-28T00:36:38;101757.81;;;1.79;100.00
53619;BME280;68717;53.040;18.488;2023-04-28T00:36:50;101753.47;;;1.78;100.00
53619;BME280;68717;53.040;18.488;2023-04-28T00:37:03;101757.81;;;1.79;100.00
53619;BME280;68717;53.040;18.488;2023-04-28T00:37:16;101760.47;;;1.79;100.00
53619;BME280;68717;53.040;18.488;2023-04-28T00:37:29;101752.53;;;1.79;100.00
53619;BME280;68717;53.040;18.488;2023-04-28T00:37:42;101752.53;;;1.79;100.00
53619;BME280;68717;53.040;18.488;2023-04-28T00:37:54;101755.16;;;1.79;100.00
53619;BME280;68717;53.040;18.488;2023-04-28T00:38:08;101748.94;;;1.80;100.00
53619;BME280;68717;53.040;18.488;2023-04-28T00:38:21;101751.59;;;1.80;100.00
53619;BME280;68717;53.040;18.488;2023-04-28T00:38:37;101755.16;;;1.79;100.00
53619;BME280;68717;53.040;18.488;2023-04-28T00:38:50;101749.88;;;1.79;100.00
53619;BME280;68717;53.040;18.488;2023-04-28T00:39:03;101752.47;;;1.81;100.00
53619;BME280;68717;53.040;18.488;2023-04-28T00:39:15;101748.94;;;1.80;100.00
53619;BME280;68717;53.040;18.488;2023-04-28T00:39:29;101749.88;;;1.79;100.00
53619;BME280;68717;53.040;18.488;2023-04-28T00:39:42;101753.47;;;1.78;100.00
53619;BME280;68717;53.040;18.488;2023-04-28T00:39:58;101755.22;;;1.78;100.00
53619;BME280;68717;53.040;18.488;2023-04-28T00:40:12;101757.84;;;1.78;100.00
53619;BME280;68717;53.040;18.488;2023-04-28T00:40:32;101757.00;;;1.77;100.00
53619;BME280;68717;53.040;18.488;2023-04-28T00:40:45;101755.28;;;1.76;100.00
53619;BME280;68717;53.040;18.488;2023-04-28T00:40:57;101754.41;;;1.76;100.00
53619;BME280;68717;53.040;18.488;2023-04-28T00:41:10;101759.69;;;1.76;100.00
53619;BME280;68717;53.040;18.488;2023-04-28T00:41:23;101751.75;;;1.76;100.00
53619;BME280;68717;53.040;18.488;2023-04-28T00:41:36;101753.53;;;1.75;100.00
53619;BME280;68717;53.040;18.488;2023-04-28T00:41:50;101758.81;;;1.75;100.00
53619;BME280;68717;53.040;18.488;2023-04-28T00:42:03;101756.19;;;1.75;100.00
53619;BME280;68717;53.040;18.488;2023-04-28T00:42:16;101751.84;;;1.74;100.00
53619;BME280;68717;53.040;18.488;2023-04-28T00:42:29;101754.41;;;1.76;100.00
53619;BME280;68717;53.040;18.488;2023-04-28T00:42:42;101753.53;;;1.75;100.00
53619;BME280;68717;53.040;18.488;2023-04-28T00:42:54;101756.19;;;1.75;100.00
53619;BME280;68717;53.040;18.488;2023-04-28T00:43:07;101759.75;;;1.74;100.00
53619;BME280;68717;53.040;18.488;2023-04-28T00:43:21;101758.81;;;1.75;100.00
53619;BME280;68717;53.040;18.488;2023-04-28T00:43:43;101756.19;;;1.75;100.00
53619;BME280;68717;53.040;18.488;2023-04-28T00:43:56;101754.41;;;1.76;100.00
53619;BME280;68717;53.040;18.488;2023-04-28T00:44:09;101753.53;;;1.75;100.00
53619;BME280;68717;53.040;18.488;2023-04-28T00:44:22;101755.28;;;1.76;100.00
53619;BME280;68717;53.040;18.488;2023-04-28T00:44:35;101754.41;;;1.76;100.00
53619;BME280;68717;53.040;18.488;2023-04-28T00:44:47;101755.28;;;1.76;100.00
53619;BME280;68717;53.040;18.488;2023-04-28T00:45:01;101754.41;;;1.76;100.00
53619;BME280;68717;53.040;18.488;2023-04-28T00:45:17;101744.72;;;1.76;100.00
53619;BME280;68717;53.040;18.488;2023-04-28T00:45:31;101750.91;;;1.75;100.00
53619;BME280;68717;53.040;18.488;2023-04-28T00:45:43;101748.25;;;1.75;100.00
53619;BME280;68717;53.040;18.488;2023-04-28T00:45:57;101753.53;;;1.75;100.00
53619;BME280;68717;53.040;18.488;2023-04-28T00:46:11;101747.41;;;1.75;100.00
53619;BME280;68717;53.040;18.488;2023-04-28T00:46:29;101757.13;;;1.74;100.00
53619;BME280;68717;53.040;18.488;2023-04-28T00:46:43;101754.47;;;1.74;100.00
53619;BME280;68717;53.040;18.488;2023-04-28T00:46:57;101756.31;;;1.72;100.00
53619;BME280;68717;53.040;18.488;2023-04-28T00:47:10;101753.66;;;1.72;100.00
53619;BME280;68717;53.040;18.488;2023-04-28T00:47:23;101757.19;;;1.71;100.00
53619;BME280;68717;53.040;18.488;2023-04-28T00:47:37;101753.75;;;1.69;100.00
53619;BME280;68717;53.040;18.488;2023-04-28T00:47:50;101754.66;;;1.68;100.00
53619;BME280;68717;53.040;18.488;2023-04-28T00:48:03;101750.28;;;1.67;100.00
53619;BME280;68717;53.040;18.488;2023-04-28T00:48:16;101757.41;;;1.65;100.00
53619;BME280;68717;53.040;18.488;2023-04-28T00:48:31;101754.81;;;1.64;100.00
53619;BME280;68717;53.040;18.488;2023-04-28T00:48:43;101751.38;;;1.61;100.00
53619;BME280;68717;53.040;18.488;2023-04-28T00:48:56;101754.09;;;1.58;100.00
53619;BME280;68717;53.040;18.488;2023-04-28T00:49:09;101755.88;;;1.58;100.00
53619;BME280;68717;53.040;18.488;2023-04-28T00:49:24;101755.06;;;1.56;100.00
53619;BME280;68717;53.040;18.488;2023-04-28T00:49:37;101751.59;;;1.54;100.00
53619;BME280;68717;53.040;18.488;2023-04-28T00:49:50;101755.19;;;1.53;100.00
53619;BME280;68717;53.040;18.488;2023-04-28T00:50:04;101749.06;;;1.51;100.00
53619;BME280;68717;53.040;18.488;2023-04-28T00:50:18;101753.44;;;1.52;100.00
53619;BME280;68717;53.040;18.488;2023-04-28T00:50:30;101749.13;;;1.49;100.00
53619;BME280;68717;53.040;18.488;2023-04-28T00:50:44;101755.34;;;1.48;100.00
53619;BME280;68717;53.040;18.488;2023-04-28T00:50:57;101757.09;;;1.48;100.00
53619;BME280;68717;53.040;18.488;2023-04-28T00:51:11;101755.41;;;1.45;100.00
53619;BME280;68717;53.040;18.488;2023-04-28T00:51:24;101753.69;;;1.44;100.00
53619;BME280;68717;53.040;18.488;2023-04-28T00:51:38;101759.94;;;1.42;100.00
53619;BME280;68717;53.040;18.488;2023-04-28T00:51:51;101756.50;;;1.39;100.00
53619;BME280;68717;53.040;18.488;2023-04-28T00:52:05;101756.53;;;1.38;100.00
53619;BME280;68717;53.040;18.488;2023-04-28T00:52:18;101755.69;;;1.37;100.00
53619;BME280;68717;53.040;18.488;2023-04-28T00:52:31;101754.84;;;1.35;100.00
53619;BME280;68717;53.040;18.488;2023-04-28T00:52:45;101758.41;;;1.34;100.00
53619;BME280;68717;53.040;18.488;2023-04-28T00:52:59;101757.53;;;1.34;100.00
53619;BME280;68717;53.040;18.488;2023-04-28T00:53:12;101754.00;;;1.35;100.00
53619;BME280;68717;53.040;18.488;2023-04-28T00:53:25;101761.94;;;1.35;100.00
53619;BME280;68717;53.040;18.488;2023-04-28T00:53:38;101760.16;;;1.35;100.00
53619;BME280;68717;53.040;18.488;2023-04-28T00:53:51;101759.28;;;1.35;100.00
53619;BME280;68717;53.040;18.488;2023-04-28T00:54:05;101756.56;;;1.36;100.00
53619;BME280;68717;53.040;18.488;2023-04-28T00:54:17;101761.81;;;1.38;100.00
53619;BME280;68717;53.040;18.488;2023-04-28T00:54:32;101753.03;;;1.37;100.00
53619;BME280;68717;53.040;18.488;2023-04-28T00:54:45;101755.59;;;1.39;100.00
53619;BME280;68717;53.040;18.488;2023-04-28T00:54:59;101759.13;;;1.39;100.00
53619;BME280;68717;53.040;18.488;2023-04-28T00:55:14;101758.22;;;1.40;100.00
53619;BME280;68717;53.040;18.488;2023-04-28T00:55:30;101754.66;;;1.42;100.00
53619;BME280;68717;53.040;18.488;2023-04-28T00:55:46;101757.31;;;1.42;100.00
53619;BME280;68717;53.040;18.488;2023-04-28T00:56:00;101753.75;;;1.43;100.00
53619;BME280;68717;53.040;18.488;2023-04-28T00:56:13;101751.97;;;1.43;100.00
53619;BME280;68717;53.040;18.488;2023-04-28T00:56:28;101753.69;;;1.44;100.00
53619;BME280;68717;53.040;18.488;2023-04-28T00:56:42;101758.13;;;1.44;100.00
53619;BME280;68717;53.040;18.488;2023-04-28T00:56:56;101753.69;;;1.44;100.00
53619;BME280;68717;53.040;18.488;2023-04-28T00:57:09;101755.50;;;1.44;100.00
53619;BME280;68717;53.040;18.488;2023-04-28T00:57:22;101754.59;;;1.43;100.00
53619;BME280;68717;53.040;18.488;2023-04-28T00:57:36;101753.75;;;1.43;100.00
53619;BME280;68717;53.040;18.488;2023-04-28T00:57:50;101760.81;;;1.42;100.00
53619;BME280;68717;53.040;18.488;2023-04-28T00:58:04;101759.94;;;1.42;100.00
53619;BME280;68717;53.040;18.488;2023-04-28T00:58:16;101755.56;;;1.40;100.00
53619;BME280;68717;53.040;18.488;2023-04-28T00:58:31;101759.06;;;1.41;100.00
53619;BME280;68717;53.040;18.488;2023-04-28T00:58:45;101759.94;;;1.42;100.00
53619;BME280;68717;53.040;18.488;2023-04-28T00:58:58;101757.25;;;1.43;100.00
53619;BME280;68717;53.040;18.488;2023-04-28T00:59:11;101746.66;;;1.43;100.00
53619;BME280;68717;53.040;18.488;2023-04-28T00:59:24;101751.09;;;1.43;100.00
53619;BME280;68717;53.040;18.488;2023-04-28T00:59:37;101753.69;;;1.44;100.00
53619;BME280;68717;53.040;18.488;2023-04-28T00:59:50;101760.69;;;1.45;100.00
53619;BME280;68717;53.040;18.488;2023-04-28T01:00:04;101756.28;;;1.46;100.00
53619;BME280;68717;53.040;18.488;2023-04-28T01:00:18;101752.72;;;1.47;100.00
53619;BME280;68717;53.040;18.488;2023-04-28T01:00:31;101757.09;;;1.48;100.00
53619;BME280;68717;53.040;18.488;2023-04-28T01:00:45;101759.72;;;1.48;100.00
53619;BME280;68717;53.040;18.488;2023-04-28T01:01:01;101756.19;;;1.49;100.00
53619;BME280;68717;53.040;18.488;2023-04-28T01:01:14;101757.91;;;1.50;100.00
53619;BME280;68717;53.040;18.488;2023-04-28T01:01:28;101757.91;;;1.50;100.00
53619;BME280;68717;53.040;18.488;2023-04-28T01:01:41;101757.00;;;1.51;100.00
53619;BME280;68717;53.040;18.488;2023-04-28T01:01:54;101755.22;;;1.51;100.00
53619;BME280;68717;53.040;18.488;2023-04-28T01:02:07;101753.44;;;1.52;100.00
53619;BME280;68717;53.040;18.488;2023-04-28T01:02:20;101759.59;;;1.52;100.00
53619;BME280;68717;53.040;18.488;2023-04-28T01:02:34;101759.53;;;1.54;100.00
53619;BME280;68717;53.040;18.488;2023-04-28T01:02:49;101754.25;;;1.54;100.00
53619;BME280;68717;53.040;18.488;2023-04-28T01:03:02;101760.41;;;1.54;100.00
53619;BME280;68717;53.040;18.488;2023-04-28T01:03:15;101750.72;;;1.55;100.00
53619;BME280;68717;53.040;18.488;2023-04-28T01:03:30;101755.06;;;1.56;100.00
53619;BME280;68717;53.040;18.488;2023-04-28T01:03:46;101760.34;;;1.56;100.00
53619;BME280;68717;53.040;18.488;2023-04-28T01:03:59;101757.72;;;1.56;100.00
53619;BME280;68717;53.040;18.488;2023-04-28T01:04:14;101756.00;;;1.55;100.00
53619;BME280;68717;53.040;18.488;2023-04-28T01:04:28;101759.53;;;1.54;100.00
53619;BME280;68717;53.040;18.488;2023-04-28T01:04:42;101754.31;;;1.52;100.00
53619;BME280;68717;53.040;18.488;2023-04-28T01:04:56;101756.16;;;1.50;100.00
53619;BME280;68717;53.040;18.488;2023-04-28T01:05:10;101762.34;;;1.49;100.00
53619;BME280;68717;53.040;18.488;2023-04-28T01:05:24;101756.22;;;1.47;100.00
53619;BME280;68717;53.040;18.488;2023-04-28T01:05:38;101758.00;;;1.47;100.00
53619;BME280;68717;53.040;18.488;2023-04-28T01:05:51;101758.91;;;1.46;100.00
53619;BME280;68717;53.040;18.488;2023-04-28T01:06:05;101751.91;;;1.45;100.00
53619;BME280;68717;53.040;18.488;2023-04-28T01:06:18;101759.03;;;1.43;100.00
53619;BME280;68717;53.040;18.488;2023-04-28T01:06:32;101759.94;;;1.42;100.00
53619;BME280;68717;53.040;18.488;2023-04-28T01:06:46;101752.06;;;1.40;100.00
53619;BME280;68717;53.040;18.488;2023-04-28T01:06:59;101754.75;;;1.38;100.00
53619;BME280;68717;53.040;18.488;2023-04-28T01:07:14;101753.03;;;1.37;100.00
53619;BME280;68717;53.040;18.488;2023-04-28T01:07:26;101757.44;;;1.37;100.00
53619;BME280;68717;53.040;18.488;2023-04-28T01:07:39;101754.84;;;1.35;100.00
53619;BME280;68717;53.040;18.488;2023-04-28T01:07:52;101757.53;;;1.34;100.00
53619;BME280;68717;53.040;18.488;2023-04-28T01:08:05;101761.09;;;1.33;100.00
53619;BME280;68717;53.040;18.488;2023-04-28T01:08:22;101757.66;;;1.31;100.00
53619;BME280;68717;53.040;18.488;2023-04-28T01:08:37;101755.03;;;1.29;100.00
53619;BME280;68717;53.040;18.488;2023-04-28T01:08:50;101766.50;;;1.28;100.00
53619;BME280;68717;53.040;18.488;2023-04-28T01:09:04;101756.88;;;1.27;100.00
53619;BME280;68717;53.040;18.488;2023-04-28T01:09:19;101759.50;;;1.27;100.00
53619;BME280;68717;53.040;18.488;2023-04-28T01:09:31;101756.88;;;1.27;100.00
53619;BME280;68717;53.040;18.488;2023-04-28T01:09:44;101763.88;;;1.28;100.00
53619;BME280;68717;53.040;18.488;2023-04-28T01:09:59;101758.59;;;1.28;100.00